createdAt,value
2023-04-02T00:00:59.880Z,9.93
2023-04-02T00:02:00.007Z,9.95
2023-04-02T00:03:00.115Z,9.95
2023-04-02T00:04:00.172Z,9.93
2023-04-02T00:05:00.225Z,9.93
2023-04-02T00:06:00.277Z,9.93
2023-04-02T00:07:00.364Z,9.96
2023-04-02T00:08:00.475Z,9.96
2023-04-02T00:09:00.530Z,9.98
2023-04-02T00:10:00.649Z,9.98
2023-04-02T00:11:00.718Z,9.96
2023-04-02T00:12:00.815Z,9.96
2023-04-02T00:13:00.903Z,9.98
2023-04-02T00:14:01.009Z,9.96
2023-04-02T00:15:01.091Z,9.99
2023-04-02T00:16:01.200Z,9.96
2023-04-02T00:17:01.243Z,9.93
2023-04-02T00:18:01.347Z,9.91
2023-04-02T00:19:01.421Z,9.91
2023-04-02T00:20:01.555Z,9.89
2023-04-02T00:21:01.553Z,9.89
2023-04-02T00:22:01.647Z,9.88
2023-04-02T00:23:01.752Z,9.85
2023-04-02T00:24:01.834Z,9.83
2023-04-02T00:25:01.943Z,9.83
2023-04-02T00:26:02.001Z,9.80
2023-04-02T00:27:02.080Z,9.78
2023-04-02T00:28:02.186Z,9.77
2023-04-02T00:29:02.268Z,9.81
2023-04-02T00:30:02.387Z,9.78
2023-04-02T00:31:02.406Z,9.78
2023-04-02T00:32:02.546Z,9.75
2023-04-02T00:33:02.626Z,9.74
2023-04-02T00:34:02.673Z,9.68
2023-04-02T00:35:02.779Z,9.71
2023-04-02T00:36:02.871Z,9.71
2023-04-02T00:37:02.915Z,9.73
2023-04-02T00:38:03.017Z,9.74
2023-04-02T00:39:03.086Z,9.74
2023-04-02T00:40:03.179Z,9.74
2023-04-02T00:41:03.226Z,9.70
2023-04-02T00:42:03.305Z,9.70
2023-04-02T00:43:03.362Z,9.63
2023-04-02T00:44:03.467Z,9.63
2023-04-02T00:45:03.544Z,9.63
2023-04-02T00:46:03.678Z,9.63
2023-04-02T00:47:03.728Z,9.63
2023-04-02T00:48:03.880Z,9.58
2023-04-02T00:49:03.903Z,9.56
2023-04-02T00:50:04.030Z,9.59
2023-04-02T00:51:04.101Z,9.59
2023-04-02T00:52:04.178Z,9.62
2023-04-02T00:53:04.222Z,9.62
2023-04-02T00:54:04.303Z,9.63
2023-04-02T00:55:04.670Z,9.63
2023-04-02T00:56:04.467Z,9.62
2023-04-02T00:57:04.545Z,9.63
2023-04-02T00:58:04.640Z,9.60
2023-04-02T00:59:04.681Z,9.60
2023-04-02T01:00:04.796Z,9.60
2023-04-02T01:01:04.860Z,9.59
2023-04-02T01:02:04.919Z,9.55
2023-04-02T01:03:05.088Z,9.58
2023-04-02T01:04:05.063Z,9.59
2023-04-02T01:05:05.163Z,9.58
2023-04-02T01:06:05.227Z,9.56
2023-04-02T01:07:05.317Z,9.59
2023-04-02T01:08:05.386Z,9.59
2023-04-02T01:09:05.445Z,9.62
2023-04-02T01:10:05.560Z,9.65
2023-04-02T01:11:05.569Z,9.65
2023-04-02T01:12:05.688Z,9.68
2023-04-02T01:13:05.731Z,9.68
2023-04-02T01:14:05.824Z,9.67
2023-04-02T01:15:05.911Z,9.68
2023-04-02T01:16:06.064Z,9.71
2023-04-02T01:17:06.061Z,9.71
2023-04-02T01:18:06.178Z,9.71
2023-04-02T01:19:06.227Z,9.71
2023-04-02T01:20:06.354Z,9.73
2023-04-02T01:21:06.456Z,9.75
2023-04-02T01:22:06.498Z,9.73
2023-04-02T01:23:06.568Z,9.71
2023-04-02T01:24:06.638Z,9.73
2023-04-02T01:25:06.716Z,9.74
2023-04-02T01:26:06.781Z,9.73
2023-04-02T01:27:06.828Z,9.71
2023-04-02T01:28:06.932Z,9.71
2023-04-02T01:29:07.024Z,9.71
2023-04-02T01:30:07.121Z,9.71
2023-04-02T01:31:07.240Z,9.70
2023-04-02T01:32:07.287Z,9.71
2023-04-02T01:33:07.425Z,9.70
2023-04-02T01:34:07.444Z,9.71
2023-04-02T01:35:07.524Z,9.70
2023-04-02T01:36:07.597Z,9.67
2023-04-02T01:37:07.712Z,9.67
2023-04-02T01:38:07.740Z,9.70
2023-04-02T01:39:07.833Z,9.67
2023-04-02T01:40:09.428Z,9.70
2023-04-02T01:41:07.993Z,9.68
2023-04-02T01:42:08.052Z,9.68
2023-04-02T01:43:08.140Z,9.70
2023-04-02T01:44:08.233Z,9.68
2023-04-02T01:45:08.309Z,9.70
2023-04-02T01:46:08.418Z,9.68
2023-04-02T01:47:08.504Z,9.68
2023-04-02T01:48:08.581Z,9.70
2023-04-02T01:49:08.661Z,9.68
2023-04-02T01:50:08.749Z,9.68
2023-04-02T01:51:08.863Z,9.68
2023-04-02T01:52:08.901Z,9.68
2023-04-02T01:53:08.996Z,9.68
2023-04-02T01:54:09.049Z,9.67
2023-04-02T01:55:09.151Z,9.67
2023-04-02T01:56:09.251Z,9.65
2023-04-02T01:57:09.367Z,9.65
2023-04-02T01:58:09.383Z,9.63
2023-04-02T01:59:09.486Z,9.67
2023-04-02T02:00:09.593Z,9.65
2023-04-02T02:01:09.738Z,9.65
2023-04-02T02:02:09.754Z,9.63
2023-04-02T02:03:09.856Z,9.59
2023-04-02T02:04:09.879Z,9.53
2023-04-02T02:05:09.953Z,9.49
2023-04-02T02:06:10.056Z,9.50
2023-04-02T02:07:10.127Z,9.52
2023-04-02T02:08:10.183Z,9.52
2023-04-02T02:09:10.271Z,9.45
2023-04-02T02:10:10.333Z,9.48
2023-04-02T02:11:10.462Z,9.44
2023-04-02T02:12:10.476Z,9.44
2023-04-02T02:13:10.574Z,9.44
2023-04-02T02:14:10.636Z,9.45
2023-04-02T02:15:10.721Z,9.45
2023-04-02T02:16:10.838Z,9.44
2023-04-02T02:17:10.862Z,9.41
2023-04-02T02:18:10.947Z,9.42
2023-04-02T02:19:11.038Z,9.42
2023-04-02T02:20:11.150Z,9.40
2023-04-02T02:21:11.245Z,9.41
2023-04-02T02:22:11.289Z,9.42
2023-04-02T02:23:11.376Z,9.45
2023-04-02T02:24:11.456Z,9.45
2023-04-02T02:25:11.558Z,9.45
2023-04-02T02:26:11.657Z,9.48
2023-04-02T02:27:11.748Z,9.50
2023-04-02T02:28:11.831Z,9.45
2023-04-02T02:29:11.981Z,9.45
2023-04-02T02:30:11.997Z,9.48
2023-04-02T02:31:12.111Z,9.44
2023-04-02T02:32:12.205Z,9.41
2023-04-02T02:33:12.246Z,9.41
2023-04-02T02:34:12.336Z,9.44
2023-04-02T02:35:12.450Z,9.42
2023-04-02T02:36:12.558Z,9.41
2023-04-02T02:37:12.592Z,9.41
2023-04-02T02:38:12.664Z,9.42
2023-04-02T02:39:12.751Z,9.48
2023-04-02T02:40:12.842Z,9.49
2023-04-02T02:41:12.947Z,9.48
2023-04-02T02:42:12.984Z,9.42
2023-04-02T02:43:13.070Z,9.44
2023-04-02T02:44:13.147Z,9.41
2023-04-02T02:45:13.244Z,9.45
2023-04-02T02:46:13.359Z,9.45
2023-04-02T02:47:13.388Z,9.35
2023-04-02T02:48:13.472Z,9.20
2023-04-02T02:49:13.545Z,9.23
2023-04-02T02:50:13.608Z,9.17
2023-04-02T02:51:14.553Z,9.04
2023-04-02T02:52:13.757Z,8.97
2023-04-02T02:53:13.839Z,9.00
2023-04-02T02:54:13.912Z,8.86
2023-04-02T02:55:14.006Z,8.89
2023-04-02T02:56:14.112Z,8.88
2023-04-02T02:57:14.207Z,8.88
2023-04-02T02:58:14.226Z,8.89
2023-04-02T02:59:14.319Z,8.85
2023-04-02T03:00:14.410Z,8.89
2023-04-02T03:01:14.569Z,8.91
2023-04-02T03:02:14.575Z,8.86
2023-04-02T03:03:14.869Z,8.86
2023-04-02T03:04:14.796Z,8.80
2023-04-02T03:05:14.813Z,8.73
2023-04-02T03:06:14.924Z,8.71
2023-04-02T03:07:14.987Z,8.73
2023-04-02T03:08:15.081Z,8.73
2023-04-02T03:09:15.158Z,8.68
2023-04-02T03:10:15.266Z,8.71
2023-04-02T03:11:15.334Z,8.68
2023-04-02T03:12:15.396Z,8.64
2023-04-02T03:13:15.477Z,8.67
2023-04-02T03:14:15.566Z,8.68
2023-04-02T03:15:15.660Z,8.71
2023-04-02T03:16:15.775Z,8.78
2023-04-02T03:17:15.826Z,8.73
2023-04-02T03:18:15.933Z,8.67
2023-04-02T03:19:15.991Z,8.64
2023-04-02T03:20:16.124Z,8.60
2023-04-02T03:21:16.210Z,8.50
2023-04-02T03:22:16.281Z,8.47
2023-04-02T03:23:17.950Z,8.45
2023-04-02T03:24:16.437Z,8.34
2023-04-02T03:25:16.507Z,8.37
2023-04-02T03:26:16.627Z,8.42
2023-04-02T03:27:16.691Z,8.39
2023-04-02T03:28:16.787Z,8.39
2023-04-02T03:29:16.898Z,8.42
2023-04-02T03:30:16.961Z,8.39
2023-04-02T03:31:17.145Z,8.39
2023-04-02T03:32:17.133Z,8.42
2023-04-02T03:33:17.207Z,8.43
2023-04-02T03:34:17.291Z,8.43
2023-04-02T03:35:17.364Z,8.39
2023-04-02T03:36:17.557Z,8.36
2023-04-02T03:37:17.554Z,8.29
2023-04-02T03:38:17.631Z,8.28
2023-04-02T03:39:17.718Z,8.37
2023-04-02T03:40:17.808Z,8.37
2023-04-02T03:41:17.900Z,8.37
2023-04-02T03:42:17.974Z,8.36
2023-04-02T03:43:18.045Z,8.37
2023-04-02T03:44:18.126Z,8.40
2023-04-02T03:45:18.201Z,8.34
2023-04-02T03:46:18.365Z,8.28
2023-04-02T03:47:18.360Z,8.25
2023-04-02T03:48:18.478Z,8.29
2023-04-02T03:49:18.527Z,8.34
2023-04-02T03:50:18.598Z,8.31
2023-04-02T03:51:18.695Z,8.31
2023-04-02T03:52:18.776Z,8.27
2023-04-02T03:53:18.831Z,8.25
2023-04-02T03:54:18.912Z,8.25
2023-04-02T03:55:18.981Z,8.22
2023-04-02T03:56:19.059Z,8.24
2023-04-02T03:57:19.123Z,8.21
2023-04-02T03:58:19.204Z,8.13
2023-04-02T03:59:19.292Z,8.10
2023-04-02T04:00:19.405Z,8.09
2023-04-02T04:01:19.481Z,8.14
2023-04-02T04:02:19.622Z,8.20
2023-04-02T04:03:19.586Z,8.12
2023-04-02T04:04:19.760Z,8.17
2023-04-02T04:05:19.778Z,8.17
2023-04-02T04:06:20.247Z,8.21
2023-04-02T04:07:19.898Z,8.25
2023-04-02T04:08:19.974Z,8.28
2023-04-02T04:09:20.036Z,8.13
2023-04-02T04:10:20.127Z,8.17
2023-04-02T04:11:20.316Z,8.18
2023-04-02T04:12:20.275Z,8.14
2023-04-02T04:13:20.371Z,8.09
2023-04-02T04:14:20.445Z,8.12
2023-04-02T04:15:20.495Z,8.02
2023-04-02T04:16:20.616Z,8.09
2023-04-02T04:17:20.658Z,8.02
2023-04-02T04:18:20.749Z,8.03
2023-04-02T04:19:20.909Z,8.04
2023-04-02T04:20:20.884Z,8.12
2023-04-02T04:21:20.962Z,8.09
2023-04-02T04:22:21.055Z,8.07
2023-04-02T04:23:21.139Z,8.04
2023-04-02T04:24:21.246Z,8.00
2023-04-02T04:25:21.314Z,7.99
2023-04-02T04:26:21.491Z,7.96
2023-04-02T04:27:21.470Z,8.03
2023-04-02T04:28:21.567Z,7.96
2023-04-02T04:29:21.621Z,7.95
2023-04-02T04:30:21.705Z,7.89
2023-04-02T04:31:22.827Z,7.84
2023-04-02T04:32:21.870Z,7.84
2023-04-02T04:33:21.923Z,7.82
2023-04-02T04:34:22.025Z,7.79
2023-04-02T04:35:22.094Z,7.77
2023-04-02T04:36:22.224Z,7.86
2023-04-02T04:37:22.248Z,7.89
2023-04-02T04:38:22.346Z,7.89
2023-04-02T04:39:22.413Z,7.89
2023-04-02T04:40:22.508Z,7.86
2023-04-02T04:41:22.623Z,7.73
2023-04-02T04:42:22.702Z,7.70
2023-04-02T04:43:22.757Z,7.69
2023-04-02T04:44:22.872Z,7.70
2023-04-02T04:45:22.926Z,7.71
2023-04-02T04:46:23.087Z,7.70
2023-04-02T04:47:23.151Z,7.60
2023-04-02T04:48:23.177Z,7.52
2023-04-02T04:49:23.242Z,7.52
2023-04-02T04:50:23.331Z,7.54
2023-04-02T04:51:23.407Z,7.54
2023-04-02T04:52:23.499Z,7.55
2023-04-02T04:53:23.592Z,7.47
2023-04-02T04:54:23.640Z,7.48
2023-04-02T04:55:23.722Z,7.44
2023-04-02T04:56:23.803Z,7.50
2023-04-02T04:57:23.884Z,7.50
2023-04-02T04:58:23.966Z,7.44
2023-04-02T04:59:24.017Z,7.39
2023-04-02T05:00:24.081Z,7.47
2023-04-02T05:01:24.200Z,7.48
2023-04-02T05:02:24.312Z,7.50
2023-04-02T05:03:24.318Z,7.37
2023-04-02T05:04:24.428Z,7.34
2023-04-02T05:05:24.508Z,7.47
2023-04-02T05:06:24.592Z,7.41
2023-04-02T05:07:24.656Z,7.41
2023-04-02T05:08:24.746Z,7.44
2023-04-02T05:09:24.834Z,7.41
2023-04-02T05:10:24.910Z,7.42
2023-04-02T05:11:25.005Z,7.32
2023-04-02T05:12:25.097Z,7.21
2023-04-02T05:13:25.170Z,7.29
2023-04-02T05:14:25.252Z,7.32
2023-04-02T05:15:25.320Z,7.39
2023-04-02T05:16:25.477Z,7.44
2023-04-02T05:17:25.560Z,7.39
2023-04-02T05:18:25.613Z,7.41
2023-04-02T05:19:25.685Z,7.47
2023-04-02T05:20:25.763Z,7.48
2023-04-02T05:21:25.876Z,7.44
2023-04-02T05:22:25.941Z,7.41
2023-04-02T05:23:26.010Z,7.41
2023-04-02T05:24:26.088Z,7.41
2023-04-02T05:25:26.170Z,7.34
2023-04-02T05:26:26.298Z,7.24
2023-04-02T05:27:26.343Z,7.26
2023-04-02T05:28:26.454Z,7.26
2023-04-02T05:29:26.539Z,7.21
2023-04-02T05:30:26.608Z,7.21
2023-04-02T05:31:26.730Z,7.16
2023-04-02T05:32:26.798Z,7.11
2023-04-02T05:33:26.847Z,7.09
2023-04-02T05:34:26.954Z,7.15
2023-04-02T05:35:27.023Z,7.21
2023-04-02T05:36:27.182Z,7.14
2023-04-02T05:37:27.179Z,7.19
2023-04-02T05:38:27.280Z,7.21
2023-04-02T05:39:27.349Z,7.21
2023-04-02T05:40:27.427Z,7.15
2023-04-02T05:41:27.526Z,7.16
2023-04-02T05:42:27.724Z,7.09
2023-04-02T05:43:27.682Z,7.23
2023-04-02T05:44:27.754Z,7.24
2023-04-02T05:45:27.879Z,7.26
2023-04-02T05:46:27.995Z,7.19
2023-04-02T05:47:28.049Z,7.15
2023-04-02T05:48:28.114Z,7.19
2023-04-02T05:49:28.188Z,7.16
2023-04-02T05:50:28.267Z,7.11
2023-04-02T05:51:28.361Z,7.01
2023-04-02T05:52:28.422Z,6.97
2023-04-02T05:53:28.491Z,6.90
2023-04-02T05:54:28.554Z,6.91
2023-04-02T05:55:28.644Z,6.97
2023-04-02T05:56:28.737Z,6.91
2023-04-02T05:57:42.760Z,6.90
2023-04-02T05:58:36.320Z,6.86
2023-04-02T05:59:28.994Z,6.87
2023-04-02T06:00:29.057Z,6.82
2023-04-02T06:01:29.161Z,6.90
2023-04-02T06:02:29.331Z,6.91
2023-04-02T06:03:29.404Z,6.91
2023-04-02T06:04:29.371Z,7.00
2023-04-02T06:05:29.457Z,7.09
2023-04-02T06:06:29.537Z,7.04
2023-04-02T06:07:29.639Z,7.08
2023-04-02T06:08:29.687Z,7.11
2023-04-02T06:09:29.768Z,7.05
2023-04-02T06:10:29.885Z,6.99
2023-04-02T06:11:29.952Z,6.96
2023-04-02T06:12:30.021Z,6.94
2023-04-02T06:13:30.086Z,6.87
2023-04-02T06:14:30.165Z,6.90
2023-04-02T06:15:30.249Z,6.89
2023-04-02T06:16:30.393Z,6.91
2023-04-02T06:17:30.462Z,6.90
2023-04-02T06:18:30.476Z,6.90
2023-04-02T06:19:30.566Z,7.00
2023-04-02T06:20:30.632Z,7.04
2023-04-02T06:21:30.768Z,6.97
2023-04-02T06:22:30.814Z,6.96
2023-04-02T06:23:30.909Z,6.86
2023-04-02T06:24:30.954Z,6.93
2023-04-02T06:25:31.045Z,6.96
2023-04-02T06:26:31.139Z,6.99
2023-04-02T06:27:31.191Z,6.93
2023-04-02T06:28:31.262Z,6.81
2023-04-02T06:29:31.360Z,6.72
2023-04-02T06:30:31.472Z,6.86
2023-04-02T06:31:31.554Z,6.83
2023-04-02T06:32:31.611Z,6.82
2023-04-02T06:33:31.682Z,6.89
2023-04-02T06:34:31.761Z,6.76
2023-04-02T06:35:31.845Z,6.82
2023-04-02T06:36:31.952Z,6.89
2023-04-02T06:37:32.013Z,6.87
2023-04-02T06:38:32.092Z,6.79
2023-04-02T06:39:32.163Z,6.89
2023-04-02T06:40:32.235Z,6.86
2023-04-02T06:41:32.361Z,6.81
2023-04-02T06:42:32.403Z,6.86
2023-04-02T06:43:32.488Z,6.87
2023-04-02T06:44:32.575Z,6.87
2023-04-02T06:45:32.753Z,6.93
2023-04-02T06:46:32.842Z,7.00
2023-04-02T06:47:32.826Z,6.89
2023-04-02T06:48:32.873Z,6.91
2023-04-02T06:49:32.957Z,6.90
2023-04-02T06:50:33.040Z,6.99
2023-04-02T06:51:33.137Z,7.05
2023-04-02T06:52:34.913Z,7.01
2023-04-02T06:53:33.313Z,6.97
2023-04-02T06:54:33.378Z,7.00
2023-04-02T06:55:33.920Z,6.93
2023-04-02T06:56:33.545Z,6.96
2023-04-02T06:57:33.728Z,6.96
2023-04-02T06:58:33.692Z,6.94
2023-04-02T06:59:33.780Z,6.97
2023-04-02T07:00:33.870Z,6.94
2023-04-02T07:01:33.991Z,6.94
2023-04-02T07:02:34.042Z,6.96
2023-04-02T07:03:34.107Z,7.00
2023-04-02T07:04:34.217Z,7.11
2023-04-02T07:05:34.515Z,7.04
2023-04-02T07:06:34.332Z,7.01
2023-04-02T07:07:34.397Z,7.04
2023-04-02T07:08:34.466Z,6.94
2023-04-02T07:09:34.566Z,6.97
2023-04-02T07:10:34.631Z,6.91
2023-04-02T07:11:34.734Z,6.94
2023-04-02T07:12:34.796Z,6.89
2023-04-02T07:13:34.861Z,6.97
2023-04-02T07:14:34.947Z,6.94
2023-04-02T07:15:35.283Z,7.04
2023-04-02T07:16:35.109Z,6.99
2023-04-02T07:17:35.196Z,6.93
2023-04-02T07:18:35.234Z,6.91
2023-04-02T07:19:35.337Z,6.89
2023-04-02T07:20:35.407Z,6.89
2023-04-02T07:21:35.537Z,6.99
2023-04-02T07:22:35.591Z,7.07
2023-04-02T07:23:35.701Z,7.07
2023-04-02T07:24:35.746Z,6.97
2023-04-02T07:25:36.086Z,7.04
2023-04-02T07:26:35.931Z,7.07
2023-04-02T07:27:36.002Z,7.05
2023-04-02T07:28:36.107Z,7.09
2023-04-02T07:29:36.193Z,7.04
2023-04-02T07:30:36.259Z,7.01
2023-04-02T07:31:36.403Z,6.99
2023-04-02T07:32:36.458Z,6.91
2023-04-02T07:33:36.529Z,6.89
2023-04-02T07:34:36.592Z,6.87
2023-04-02T07:35:37.031Z,7.00
2023-04-02T07:36:36.787Z,7.00
2023-04-02T07:37:36.858Z,7.01
2023-04-02T07:38:36.896Z,6.99
2023-04-02T07:39:38.924Z,6.96
2023-04-02T07:40:37.085Z,6.86
2023-04-02T07:41:37.181Z,6.90
2023-04-02T07:42:37.242Z,6.90
2023-04-02T07:43:37.355Z,6.97
2023-04-02T07:44:37.445Z,6.93
2023-04-02T07:45:37.822Z,7.05
2023-04-02T07:46:37.784Z,7.08
2023-04-02T07:47:37.738Z,7.14
2023-04-02T07:48:37.781Z,7.09
2023-04-02T07:49:37.842Z,7.04
2023-04-02T07:50:37.915Z,7.09
2023-04-02T07:51:38.062Z,7.15
2023-04-02T07:52:40.263Z,7.16
2023-04-02T07:53:38.194Z,7.18
2023-04-02T07:54:38.268Z,7.15
2023-04-02T07:55:38.336Z,7.12
2023-04-02T07:56:38.408Z,7.16
2023-04-02T07:57:38.484Z,7.12
2023-04-02T07:58:38.533Z,7.01
2023-04-02T07:59:38.600Z,7.07
2023-04-02T08:00:38.691Z,7.07
2023-04-02T08:01:38.794Z,7.08
2023-04-02T08:02:38.836Z,6.97
2023-04-02T08:03:38.931Z,6.96
2023-04-02T08:04:38.973Z,7.00
2023-04-02T08:05:39.059Z,7.04
2023-04-02T08:06:39.143Z,7.01
2023-04-02T08:07:39.216Z,6.97
2023-04-02T08:08:39.285Z,6.91
2023-04-02T08:09:39.366Z,6.86
2023-04-02T08:10:39.434Z,6.86
2023-04-02T08:11:39.541Z,6.91
2023-04-02T08:12:39.585Z,6.89
2023-04-02T08:13:39.676Z,6.90
2023-04-02T08:14:39.753Z,6.90
2023-04-02T08:15:39.830Z,6.89
2023-04-02T08:16:39.931Z,6.82
2023-04-02T08:17:39.999Z,6.86
2023-04-02T08:18:40.034Z,6.91
2023-04-02T08:19:53.789Z,6.81
2023-04-02T08:20:40.202Z,6.76
2023-04-02T08:21:40.287Z,6.86
2023-04-02T08:22:40.356Z,6.78
2023-04-02T08:23:40.442Z,6.79
2023-04-02T08:24:40.521Z,6.75
2023-04-02T08:25:40.618Z,6.82
2023-04-02T08:26:40.687Z,6.83
2023-04-02T08:27:40.778Z,6.83
2023-04-02T08:28:40.846Z,6.87
2023-04-02T08:29:40.943Z,6.83
2023-04-02T08:30:41.062Z,6.81
2023-04-02T08:31:41.136Z,6.86
2023-04-02T08:32:41.318Z,6.91
2023-04-02T08:33:41.248Z,6.89
2023-04-02T08:34:41.321Z,6.83
2023-04-02T08:35:41.418Z,6.71
2023-04-02T08:36:41.508Z,6.71
2023-04-02T08:37:41.549Z,6.78
2023-04-02T08:38:41.620Z,6.71
2023-04-02T08:39:41.709Z,6.71
2023-04-02T08:40:41.794Z,6.72
2023-04-02T08:41:41.895Z,6.73
2023-04-02T08:42:41.953Z,6.64
2023-04-02T08:43:42.031Z,6.78
2023-04-02T08:44:42.082Z,6.79
2023-04-02T08:45:42.376Z,6.78
2023-04-02T08:46:42.257Z,6.75
2023-04-02T08:47:42.406Z,6.71
2023-04-02T08:48:42.749Z,6.75
2023-04-02T08:49:42.493Z,6.78
2023-04-02T08:50:42.554Z,6.82
2023-04-02T08:51:42.661Z,6.78
2023-04-02T08:52:42.694Z,6.87
2023-04-02T08:53:42.811Z,6.86
2023-04-02T08:54:42.845Z,6.82
2023-04-02T08:55:43.073Z,6.78
2023-04-02T08:56:43.045Z,6.81
2023-04-02T08:57:43.095Z,6.75
2023-04-02T08:58:43.173Z,6.72
2023-04-02T08:59:43.273Z,6.82
2023-04-02T09:00:43.358Z,6.78
2023-04-02T09:01:43.522Z,6.79
2023-04-02T09:02:43.593Z,6.78
2023-04-02T09:03:43.628Z,6.75
2023-04-02T09:04:43.782Z,6.72
2023-04-02T09:05:43.795Z,6.64
2023-04-02T09:06:43.901Z,6.63
2023-04-02T09:07:43.967Z,6.64
2023-04-02T09:08:44.045Z,6.69
2023-04-02T09:09:44.133Z,6.78
2023-04-02T09:10:44.227Z,6.83
2023-04-02T09:11:44.321Z,6.87
2023-04-02T09:12:44.395Z,6.82
2023-04-02T09:13:44.479Z,6.79
2023-04-02T09:14:44.540Z,6.75
2023-04-02T09:15:44.618Z,6.78
2023-04-02T09:16:44.725Z,6.71
2023-04-02T09:17:53.511Z,6.64
2023-04-02T09:18:44.947Z,6.68
2023-04-02T09:19:44.981Z,6.65
2023-04-02T09:20:45.091Z,6.69
2023-04-02T09:21:45.166Z,6.71
2023-04-02T09:22:45.214Z,6.71
2023-04-02T09:23:45.305Z,6.75
2023-04-02T09:24:45.372Z,6.78
2023-04-02T09:25:54.042Z,6.72
2023-04-02T09:26:45.568Z,6.75
2023-04-02T09:27:45.634Z,6.76
2023-04-02T09:28:45.707Z,6.72
2023-04-02T09:29:45.809Z,6.65
2023-04-02T09:30:45.874Z,6.60
2023-04-02T09:31:46.022Z,6.65
2023-04-02T09:32:46.094Z,6.72
2023-04-02T09:33:46.269Z,6.73
2023-04-02T09:34:46.216Z,6.73
2023-04-02T09:35:46.303Z,6.65
2023-04-02T09:36:46.374Z,6.68
2023-04-02T09:37:46.455Z,6.75
2023-04-02T09:38:46.525Z,6.71
2023-04-02T09:39:46.600Z,6.69
2023-04-02T09:40:46.679Z,6.68
2023-04-02T09:41:55.822Z,6.69
2023-04-02T09:42:46.829Z,6.71
2023-04-02T09:43:46.917Z,6.73
2023-04-02T09:44:47.012Z,6.76
2023-04-02T09:45:47.098Z,6.79
2023-04-02T09:46:47.202Z,6.81
2023-04-02T09:47:47.298Z,6.82
2023-04-02T09:48:47.350Z,6.86
2023-04-02T09:49:47.432Z,6.76
2023-04-02T09:50:47.515Z,6.72
2023-04-02T09:51:47.611Z,6.81
2023-04-02T09:52:47.637Z,6.81
2023-04-02T09:53:47.725Z,6.65
2023-04-02T09:54:47.795Z,6.61
2023-04-02T09:55:47.866Z,6.73
2023-04-02T09:56:47.986Z,6.71
2023-04-02T09:57:48.035Z,6.73
2023-04-02T09:58:48.131Z,6.79
2023-04-02T09:59:48.191Z,6.73
2023-04-02T10:00:48.309Z,6.72
2023-04-02T10:01:48.348Z,6.71
2023-04-02T10:02:48.421Z,6.83
2023-04-02T10:03:48.511Z,6.90
2023-04-02T10:04:48.774Z,6.91
2023-04-02T10:05:48.606Z,6.89
2023-04-02T10:06:48.706Z,6.91
2023-04-02T10:07:48.755Z,6.89
2023-04-02T10:08:48.870Z,6.90
2023-04-02T10:09:48.925Z,6.83
2023-04-02T10:10:49.009Z,6.87
2023-04-02T10:11:49.103Z,6.86
2023-04-02T10:12:49.177Z,6.78
2023-04-02T10:13:49.229Z,6.78
2023-04-02T10:14:49.306Z,6.81
2023-04-02T10:15:49.383Z,6.83
2023-04-02T10:16:49.507Z,6.87
2023-04-02T10:17:49.534Z,6.78
2023-04-02T10:18:49.617Z,6.72
2023-04-02T10:19:49.673Z,6.83
2023-04-02T10:20:51.537Z,6.87
2023-04-02T10:21:49.874Z,6.78
2023-04-02T10:22:49.930Z,6.82
2023-04-02T10:23:50.013Z,6.86
2023-04-02T10:24:50.114Z,6.86
2023-04-02T10:25:50.176Z,6.82
2023-04-02T10:26:50.264Z,6.86
2023-04-02T10:27:50.334Z,6.86
2023-04-02T10:28:50.417Z,6.87
2023-04-02T10:29:50.482Z,6.89
2023-04-02T10:30:50.606Z,6.89
2023-04-02T10:31:50.677Z,6.93
2023-04-02T10:32:50.821Z,7.00
2023-04-02T10:33:50.794Z,6.96
2023-04-02T10:34:50.894Z,6.91
2023-04-02T10:35:50.971Z,6.97
2023-04-02T10:36:51.068Z,6.91
2023-04-02T10:37:51.135Z,6.87
2023-04-02T10:38:51.232Z,6.82
2023-04-02T10:39:51.301Z,6.90
2023-04-02T10:40:51.394Z,6.91
2023-04-02T10:41:51.495Z,6.96
2023-04-02T10:42:51.570Z,6.99
2023-04-02T10:43:51.630Z,7.01
2023-04-02T10:44:51.736Z,7.05
2023-04-02T10:45:51.813Z,7.00
2023-04-02T10:46:51.893Z,7.00
2023-04-02T10:47:51.962Z,7.05
2023-04-02T10:48:52.048Z,7.07
2023-04-02T10:49:52.147Z,7.07
2023-04-02T10:50:52.188Z,7.07
2023-04-02T10:51:52.286Z,7.07
2023-04-02T10:52:52.360Z,7.01
2023-04-02T10:53:52.420Z,7.04
2023-04-02T10:54:52.540Z,7.04
2023-04-02T10:55:52.598Z,7.04
2023-04-02T10:56:52.769Z,7.01
2023-04-02T10:57:52.769Z,7.00
2023-04-02T10:58:53.822Z,7.07
2023-04-02T10:59:52.955Z,6.94
2023-04-02T11:00:53.036Z,6.93
2023-04-02T11:01:53.342Z,7.05
2023-04-02T11:02:53.321Z,7.01
2023-04-02T11:03:53.329Z,7.11
2023-04-02T11:04:54.344Z,7.15
2023-04-02T11:05:53.444Z,7.21
2023-04-02T11:07:00.587Z,7.24
2023-04-02T11:07:53.619Z,7.19
2023-04-02T11:08:53.683Z,7.04
2023-04-02T11:09:53.770Z,6.94
2023-04-02T11:10:53.860Z,7.00
2023-04-02T11:11:53.945Z,7.07
2023-04-02T11:12:54.032Z,7.00
2023-04-02T11:13:54.114Z,6.99
2023-04-02T11:14:54.207Z,6.99
2023-04-02T11:15:54.362Z,6.96
2023-04-02T11:16:54.376Z,7.01
2023-04-02T11:17:54.499Z,6.97
2023-04-02T11:18:54.533Z,6.94
2023-04-02T11:19:54.622Z,7.00
2023-04-02T11:20:54.700Z,7.04
2023-04-02T11:21:59.611Z,7.07
2023-04-02T11:22:54.859Z,7.01
2023-04-02T11:23:54.941Z,7.11
2023-04-02T11:24:55.048Z,7.11
2023-04-02T11:25:55.124Z,7.14
2023-04-02T11:26:55.236Z,7.14
2023-04-02T11:27:55.273Z,7.14
2023-04-02T11:28:55.362Z,7.12
2023-04-02T11:29:55.453Z,7.09
2023-04-02T11:30:55.552Z,7.09
2023-04-02T11:31:55.641Z,7.11
2023-04-02T11:32:55.801Z,7.09
2023-04-02T11:33:55.782Z,7.08
2023-04-02T11:35:06.540Z,7.05
2023-04-02T11:35:55.948Z,7.12
2023-04-02T11:36:56.030Z,7.18
2023-04-02T11:37:56.109Z,7.16
2023-04-02T11:39:04.486Z,7.11
2023-04-02T11:39:56.263Z,7.11
2023-04-02T11:40:56.349Z,7.14
2023-04-02T11:41:56.434Z,7.16
2023-04-02T11:42:56.516Z,7.23
2023-04-02T11:43:56.576Z,7.26
2023-04-02T11:44:56.661Z,7.27
2023-04-02T11:45:56.916Z,7.27
2023-04-02T11:46:56.871Z,7.29
2023-04-02T11:47:56.920Z,7.33
2023-04-02T11:48:56.999Z,7.36
2023-04-02T11:49:57.089Z,7.36
2023-04-02T11:50:57.162Z,7.37
2023-04-02T11:52:09.039Z,7.45
2023-04-02T11:52:57.342Z,7.45
2023-04-02T11:53:57.405Z,7.47
2023-04-02T11:54:57.510Z,7.48
2023-04-02T11:55:57.593Z,7.55
2023-04-02T11:56:57.692Z,7.55
2023-04-02T11:57:57.733Z,7.67
2023-04-02T11:58:57.811Z,7.71
2023-04-02T11:59:57.896Z,7.77
2023-04-02T12:00:57.986Z,7.84
2023-04-02T12:01:58.240Z,7.91
2023-04-02T12:02:58.174Z,7.95
2023-04-02T12:03:58.234Z,7.89
2023-04-02T12:04:58.358Z,7.96
2023-04-02T12:05:58.398Z,7.94
2023-04-02T12:06:58.521Z,7.96
2023-04-02T12:07:58.602Z,7.96
2023-04-02T12:08:58.675Z,7.92
2023-04-02T12:09:58.748Z,7.94
2023-04-02T12:10:58.822Z,7.88
2023-04-02T12:11:58.923Z,7.96
2023-04-02T12:12:59.104Z,7.96
2023-04-02T12:13:59.063Z,7.94
2023-04-02T12:14:59.153Z,7.96
2023-04-02T12:15:59.211Z,7.99
2023-04-02T12:16:59.358Z,7.94
2023-04-02T12:17:59.399Z,7.86
2023-04-02T12:18:59.462Z,7.86
2023-04-02T12:19:59.519Z,7.79
2023-04-02T12:20:59.635Z,7.74
2023-04-02T12:21:59.741Z,7.82
2023-04-02T12:22:59.810Z,7.84
2023-04-02T12:23:59.866Z,7.79
2023-04-02T12:24:59.935Z,7.81
2023-04-02T12:26:00.021Z,7.79
2023-04-02T12:27:00.114Z,7.81
2023-04-02T12:28:00.177Z,7.82
2023-04-02T12:29:00.266Z,7.71
2023-04-02T12:30:00.338Z,7.76
2023-04-02T12:31:00.520Z,7.81
2023-04-02T12:32:00.527Z,7.77
2023-04-02T12:33:00.704Z,7.84
2023-04-02T12:34:00.692Z,7.82
2023-04-02T12:35:00.773Z,7.81
2023-04-02T12:36:00.926Z,7.82
2023-04-02T12:37:00.944Z,7.77
2023-04-02T12:38:01.018Z,7.81
2023-04-02T12:39:01.083Z,7.77
2023-04-02T12:40:01.157Z,7.77
2023-04-02T12:41:01.233Z,7.76
2023-04-02T12:42:01.316Z,7.73
2023-04-02T12:43:01.383Z,7.71
2023-04-02T12:44:01.468Z,7.84
2023-04-02T12:45:01.576Z,7.82
2023-04-02T12:46:01.719Z,7.81
2023-04-02T12:47:01.782Z,7.81
2023-04-02T12:48:01.856Z,7.84
2023-04-02T12:49:01.920Z,7.88
2023-04-02T12:50:02.021Z,7.86
2023-04-02T12:51:02.075Z,7.86
2023-04-02T12:52:02.140Z,7.85
2023-04-02T12:53:02.201Z,7.82
2023-04-02T12:54:02.253Z,7.82
2023-04-02T12:55:02.363Z,7.82
2023-04-02T12:56:02.416Z,7.74
2023-04-02T12:57:02.535Z,7.76
2023-04-02T12:58:02.543Z,7.84
2023-04-02T12:59:02.640Z,7.89
2023-04-02T13:00:02.720Z,7.92
2023-04-02T13:01:02.815Z,7.95
2023-04-02T13:02:03.059Z,7.91
2023-04-02T13:03:03.026Z,7.96
2023-04-02T13:04:03.096Z,7.99
2023-04-02T13:05:03.238Z,8.00
2023-04-02T13:06:03.225Z,8.02
2023-04-02T13:07:03.343Z,8.04
2023-04-02T13:08:03.388Z,8.10
2023-04-02T13:09:03.485Z,8.09
2023-04-02T13:10:03.529Z,8.06
2023-04-02T13:11:03.600Z,8.06
2023-04-02T13:12:03.708Z,8.07
2023-04-02T13:13:03.765Z,8.12
2023-04-02T13:14:03.839Z,8.10
2023-04-02T13:15:03.928Z,8.14
2023-04-02T13:16:04.032Z,8.21
2023-04-02T13:17:04.110Z,8.24
2023-04-02T13:18:04.204Z,8.25
2023-04-02T13:19:04.252Z,8.12
2023-04-02T13:20:04.436Z,8.09